createdAt,value
2023-03-04T00:00:15.160Z,14.27
2023-03-04T00:02:45.985Z,14.20
2023-03-04T00:05:16.751Z,14.17
2023-03-04T00:07:44.553Z,14.20
2023-03-04T00:10:14.168Z,14.16
2023-03-04T00:12:42.111Z,14.16
2023-03-04T00:15:10.344Z,14.18
2023-03-04T00:17:38.113Z,14.12
2023-03-04T00:20:06.575Z,14.15
2023-03-04T00:22:34.348Z,14.08
2023-03-04T00:25:02.071Z,14.13
2023-03-04T00:27:29.777Z,14.14
2023-03-04T00:30:00.436Z,14.02
2023-03-04T00:32:28.248Z,14.08
2023-03-04T00:34:55.589Z,14.08
2023-03-04T00:37:23.450Z,14.12
2023-03-04T00:39:51.430Z,14.12
2023-03-04T00:42:18.826Z,14.13
2023-03-04T00:44:46.416Z,14.11
2023-03-04T00:47:14.054Z,14.02
2023-03-04T00:49:41.836Z,14.06
2023-03-04T00:52:09.840Z,14.01
2023-03-04T00:54:37.563Z,13.98
2023-03-04T00:57:05.069Z,14.00
2023-03-04T00:59:53.619Z,14.06
2023-03-04T01:02:21.637Z,13.99
2023-03-04T01:04:52.740Z,13.99
2023-03-04T01:07:20.885Z,13.98
2023-03-04T01:09:51.765Z,14.00
2023-03-04T01:12:19.734Z,13.95
2023-03-04T01:14:48.728Z,13.91
2023-03-04T01:17:17.926Z,13.83
2023-03-04T01:19:49.591Z,13.80
2023-03-04T01:22:23.275Z,13.83
2023-03-04T01:24:54.410Z,13.70
2023-03-04T01:27:23.678Z,13.67
2023-03-04T01:30:07.647Z,13.63
2023-03-04T01:32:40.425Z,13.58
2023-03-04T01:35:09.284Z,13.61
2023-03-04T01:37:37.464Z,13.56
2023-03-04T01:40:11.289Z,13.59
2023-03-04T01:42:43.845Z,13.57
2023-03-04T01:45:21.822Z,13.51
2023-03-04T01:47:52.967Z,13.52
2023-03-04T01:50:41.899Z,13.44
2023-03-04T01:53:21.194Z,13.35
2023-03-04T01:55:52.663Z,13.39
2023-03-04T01:58:29.241Z,13.34
2023-03-04T02:00:59.803Z,13.34
2023-03-04T02:03:28.574Z,13.27
2023-03-04T02:05:59.955Z,13.19
2023-03-04T02:08:27.827Z,13.13
2023-03-04T02:10:58.452Z,13.23
2023-03-04T02:13:27.494Z,13.21
2023-03-04T02:15:56.621Z,13.27
2023-03-04T02:18:25.244Z,13.28
2023-03-04T02:20:55.611Z,13.22
2023-03-04T02:23:41.966Z,13.19
2023-03-04T02:26:23.386Z,13.18
2023-03-04T02:28:57.046Z,13.17
2023-03-04T02:31:29.191Z,13.03
2023-03-04T02:34:01.766Z,13.10
2023-03-04T02:36:30.974Z,12.92
2023-03-04T02:39:10.705Z,12.94
2023-03-04T02:41:44.522Z,12.88
2023-03-04T02:44:27.426Z,12.78
2023-03-04T02:47:00.138Z,12.82
2023-03-04T02:49:32.397Z,12.80
2023-03-04T02:52:15.620Z,12.80
2023-03-04T02:54:44.208Z,12.73
2023-03-04T02:57:15.846Z,12.75
2023-03-04T02:59:48.741Z,12.69
2023-03-04T03:02:24.518Z,12.74
2023-03-04T03:04:53.155Z,12.65
2023-03-04T03:07:22.906Z,12.56
2023-03-04T03:09:52.274Z,12.72
2023-03-04T03:12:21.004Z,12.64
2023-03-04T03:14:52.991Z,12.64
2023-03-04T03:17:22.561Z,12.60
2023-03-04T03:19:50.897Z,12.45
2023-03-04T03:22:18.737Z,12.51
2023-03-04T03:24:47.259Z,12.21
2023-03-04T03:27:17.460Z,12.33
2023-03-04T03:29:46.489Z,12.38
2023-03-04T03:32:16.470Z,12.45
2023-03-04T03:34:47.257Z,12.47
2023-03-04T03:37:15.759Z,12.55
2023-03-04T03:39:43.499Z,12.46
2023-03-04T03:42:11.662Z,12.40
2023-03-04T03:44:41.474Z,12.41
2023-03-04T03:47:09.444Z,12.37
2023-03-04T03:49:36.811Z,12.31
2023-03-04T03:52:06.313Z,12.45
2023-03-04T03:54:39.712Z,12.38
2023-03-04T03:57:07.672Z,12.42
2023-03-04T03:59:36.263Z,12.34
2023-03-04T04:02:04.982Z,12.37
2023-03-04T04:04:35.304Z,12.43
2023-03-04T04:07:03.074Z,12.44
2023-03-04T04:09:30.708Z,12.50
2023-03-04T04:11:58.878Z,12.51
2023-03-04T04:14:28.986Z,12.50
2023-03-04T04:16:57.470Z,12.41
2023-03-04T04:19:25.649Z,12.39
2023-03-04T04:21:54.378Z,12.49
2023-03-04T04:24:22.763Z,12.46
2023-03-04T04:26:51.249Z,12.38
2023-03-04T04:29:19.670Z,12.46
2023-03-04T04:31:47.304Z,12.46
2023-03-04T04:34:15.617Z,12.46
2023-03-04T04:36:46.508Z,12.46
2023-03-04T04:39:15.073Z,12.43
2023-03-04T04:41:45.764Z,12.41
2023-03-04T04:44:14.138Z,12.25
2023-03-04T04:46:42.979Z,12.38
2023-03-04T04:49:11.623Z,12.36
2023-03-04T04:51:40.092Z,12.30
2023-03-04T04:54:12.045Z,12.30
2023-03-04T04:56:40.442Z,12.35
2023-03-04T05:02:24.131Z,12.13
2023-03-04T05:04:54.775Z,12.17
2023-03-04T05:07:23.247Z,12.15
2023-03-04T05:09:50.773Z,12.14
2023-03-04T05:12:18.219Z,12.20
2023-03-04T05:14:45.713Z,12.12
2023-03-04T05:17:14.382Z,12.15
2023-03-04T05:19:44.820Z,12.17
2023-03-04T05:22:12.296Z,12.04
2023-03-04T05:24:39.987Z,12.06
2023-03-04T05:27:08.042Z,12.10
2023-03-04T05:29:35.339Z,12.09
2023-03-04T05:32:02.825Z,11.97
2023-03-04T05:34:30.362Z,12.13
2023-03-04T05:36:57.853Z,12.09
2023-03-04T05:39:25.222Z,12.10
2023-03-04T05:41:52.640Z,12.05
2023-03-04T05:44:20.260Z,12.12
2023-03-04T05:46:47.749Z,12.11
2023-03-04T05:49:17.317Z,12.10
2023-03-04T05:51:47.843Z,12.03
2023-03-04T05:54:16.389Z,12.10
2023-03-04T05:56:45.713Z,12.07
2023-03-04T05:59:15.937Z,12.07
2023-03-04T06:01:43.090Z,12.03
2023-03-04T06:04:10.685Z,12.10
2023-03-04T06:06:38.036Z,12.17
2023-03-04T06:09:05.258Z,12.09
2023-03-04T06:11:34.271Z,12.21
2023-03-04T06:14:05.433Z,12.24
2023-03-04T06:16:33.593Z,12.21
2023-03-04T06:19:04.660Z,12.24
2023-03-04T06:21:35.800Z,12.24
2023-03-04T06:24:03.355Z,12.19
2023-03-04T06:26:31.593Z,12.17
2023-03-04T06:28:59.153Z,12.15
2023-03-04T06:31:26.761Z,12.20
2023-03-04T06:33:54.382Z,12.17
2023-03-04T06:36:21.901Z,12.19
2023-03-04T06:38:53.428Z,12.17
2023-03-04T06:41:22.020Z,12.20
2023-03-04T06:43:53.469Z,12.23
2023-03-04T06:46:23.787Z,12.22
2023-03-04T06:48:52.573Z,12.20
2023-03-04T06:51:23.308Z,12.13
2023-03-04T06:53:50.905Z,12.03
2023-03-04T06:56:18.508Z,12.24
2023-03-04T06:58:48.672Z,12.15
2023-03-04T07:01:36.391Z,12.19
2023-03-04T07:04:11.700Z,12.11
2023-03-04T07:06:41.706Z,12.11
2023-03-04T07:09:09.466Z,12.13
2023-03-04T07:11:52.651Z,12.13
2023-03-04T07:14:35.629Z,11.95
2023-03-04T07:17:16.596Z,11.82
2023-03-04T07:19:49.734Z,11.80
2023-03-04T07:22:25.892Z,11.98
2023-03-04T07:24:55.440Z,11.99
2023-03-04T07:27:25.927Z,12.16
2023-03-04T07:29:55.637Z,12.18
2023-03-04T07:32:36.959Z,12.23
2023-03-04T07:35:13.172Z,12.31
2023-03-04T07:37:53.597Z,12.39
2023-03-04T07:40:30.313Z,12.38
2023-03-04T07:43:03.385Z,12.38
2023-03-04T07:45:37.292Z,12.12
2023-03-04T07:48:12.210Z,12.41
2023-03-04T07:50:47.240Z,12.41
2023-03-04T07:53:17.614Z,12.42
2023-03-04T07:55:50.965Z,12.48
2023-03-04T07:58:20.214Z,12.27
2023-03-04T08:00:47.811Z,12.51
2023-03-04T08:03:27.350Z,12.37
2023-03-04T08:05:55.403Z,12.59
2023-03-04T08:08:23.154Z,12.59
2023-03-04T08:10:57.462Z,12.66
2023-03-04T08:13:30.397Z,12.71
2023-03-04T08:16:01.061Z,12.84
2023-03-04T08:18:33.374Z,12.84
2023-03-04T08:21:02.748Z,12.99
2023-03-04T08:23:30.353Z,13.11
2023-03-04T08:25:58.973Z,13.28
2023-03-04T08:28:26.746Z,13.30
2023-03-04T08:31:00.946Z,13.71
2023-03-04T08:33:28.261Z,14.05
2023-03-04T08:35:55.658Z,13.99
2023-03-04T08:38:23.366Z,14.24
2023-03-04T08:40:58.140Z,14.29
2023-03-04T08:43:27.252Z,14.42
2023-03-04T08:45:55.595Z,14.74
2023-03-04T08:48:26.563Z,14.89
2023-03-04T08:50:56.522Z,15.22
2023-03-04T08:53:24.222Z,15.30
2023-03-04T08:55:53.286Z,15.59
2023-03-04T08:58:20.770Z,15.32
2023-03-04T09:00:51.891Z,15.72
2023-03-04T09:03:20.725Z,16.06
2023-03-04T09:05:58.477Z,15.62
2023-03-04T09:08:26.198Z,15.90
2023-03-04T09:11:02.449Z,16.40
2023-03-04T09:13:38.987Z,16.50
2023-03-04T09:16:17.883Z,16.91
2023-03-04T09:18:53.809Z,17.05
2023-03-04T09:21:31.539Z,17.25
2023-03-04T09:23:59.461Z,17.54
2023-03-04T09:26:41.688Z,17.31
2023-03-04T09:29:27.007Z,17.42
2023-03-04T09:32:23.278Z,17.53
2023-03-04T09:35:05.059Z,18.09
2023-03-04T09:37:37.596Z,18.03
2023-03-04T09:40:17.299Z,18.16
2023-03-04T09:42:49.546Z,18.22
2023-03-04T09:46:00.141Z,18.36
2023-03-04T09:49:01.708Z,18.91
2023-03-04T09:51:57.159Z,19.17
2023-03-04T09:54:51.358Z,19.48
2023-03-04T09:58:00.906Z,19.50
2023-03-04T10:00:45.208Z,19.89
2023-03-04T10:03:17.317Z,20.12
2023-03-04T10:06:01.868Z,19.93
2023-03-04T10:08:44.711Z,19.71
2023-03-04T10:11:27.065Z,20.15
2023-03-04T10:14:32.923Z,20.57
2023-03-04T10:17:28.694Z,20.76
2023-03-04T10:20:32.055Z,20.59
2023-03-04T10:23:29.290Z,20.65
2023-03-04T10:26:05.657Z,21.03
2023-03-04T10:28:37.888Z,21.24
2023-03-04T10:31:35.321Z,21.31
2023-03-04T10:34:07.273Z,21.62
2023-03-04T10:36:59.378Z,21.98
2023-03-04T10:39:36.074Z,22.20
2023-03-04T10:42:27.388Z,22.30
2023-03-04T10:45:00.823Z,22.43
2023-03-04T10:47:33.146Z,22.57
2023-03-04T10:50:04.091Z,22.61
2023-03-04T10:52:32.959Z,22.99
2023-03-04T10:55:06.490Z,23.09
2023-03-04T10:57:38.125Z,23.44
2023-03-04T11:00:19.205Z,23.30
2023-03-04T11:02:50.636Z,23.42
2023-03-04T11:05:21.999Z,23.43
2023-03-04T11:07:59.073Z,23.54
2023-03-04T11:10:47.526Z,23.45
2023-03-04T11:13:19.852Z,22.50
2023-03-04T11:15:56.204Z,22.68
2023-03-04T11:18:47.163Z,23.40
2023-03-04T11:21:29.164Z,23.88
2023-03-04T11:24:13.325Z,23.31
2023-03-04T11:27:28.318Z,23.64
2023-03-04T11:30:17.808Z,23.94
2023-03-04T11:32:57.118Z,23.88
2023-03-04T11:35:27.492Z,24.15
2023-03-04T11:38:00.786Z,23.74
2023-03-04T11:40:41.509Z,24.12
2023-03-04T11:43:15.644Z,24.60
2023-03-04T11:46:05.949Z,24.82
2023-03-04T11:49:07.569Z,25.20
2023-03-04T11:51:38.000Z,25.41
2023-03-04T11:54:29.490Z,25.56
2023-03-04T11:57:13.448Z,25.28
2023-03-04T12:00:13.839Z,24.53
2023-03-04T12:03:13.191Z,24.06
2023-03-04T12:05:46.966Z,23.39
2023-03-04T12:08:17.418Z,22.35
2023-03-04T12:10:47.912Z,23.17
2023-03-04T12:13:40.424Z,23.24
2023-03-04T12:16:17.182Z,23.33
2023-03-04T12:19:06.542Z,23.50
2023-03-04T12:21:38.113Z,22.39
2023-03-04T12:24:11.285Z,22.39
2023-03-04T12:26:55.761Z,21.87
2023-03-04T12:29:34.997Z,22.66
2023-03-04T12:32:23.149Z,21.99
2023-03-04T12:35:13.712Z,21.94
2023-03-04T12:38:07.683Z,21.11
2023-03-04T12:40:54.067Z,21.74
2023-03-04T12:43:30.534Z,22.23
2023-03-04T12:46:30.856Z,22.01
2023-03-04T12:48:58.539Z,21.82
2023-03-04T12:51:36.765Z,22.16
2023-03-04T12:54:31.177Z,22.16
2023-03-04T12:57:15.738Z,21.80
2023-03-04T13:00:09.051Z,21.24
2023-03-04T13:02:55.144Z,21.94
2023-03-04T13:06:09.556Z,21.67
2023-03-04T13:08:58.804Z,22.21
2023-03-04T13:11:32.194Z,22.37
2023-03-04T13:14:23.386Z,22.02
2023-03-04T13:16:54.104Z,21.33
2023-03-04T13:19:45.905Z,21.91
2023-03-04T13:22:40.446Z,22.31
2023-03-04T13:25:50.800Z,22.18
2023-03-04T13:28:48.620Z,22.85
2023-03-04T13:31:27.381Z,22.90
2023-03-04T13:33:57.542Z,22.21
2023-03-04T13:36:36.201Z,22.12
2023-03-04T13:39:25.226Z,21.58
2023-03-04T13:42:35.044Z,21.71
2023-03-04T13:45:06.731Z,22.05
2023-03-04T13:47:44.072Z,21.97
2023-03-04T13:50:30.522Z,21.74
2023-03-04T13:53:36.789Z,21.60
2023-03-04T13:56:15.288Z,21.73
2023-03-04T13:58:43.824Z,21.21
2023-03-04T14:01:30.762Z,21.70
2023-03-04T14:04:10.750Z,21.93
2023-03-04T14:06:48.076Z,21.31
2023-03-04T14:09:21.534Z,22.35
2023-03-04T14:11:53.721Z,21.18
2023-03-04T14:14:27.296Z,22.59
2023-03-04T14:17:23.007Z,21.35
2023-03-04T14:19:53.941Z,21.84
2023-03-04T14:22:33.324Z,22.01
2023-03-04T14:25:27.489Z,22.38
2023-03-04T14:28:14.399Z,21.32
2023-03-04T14:31:00.531Z,21.64
2023-03-04T14:33:34.928Z,21.28
2023-03-04T14:39:03.897Z,21.54
2023-03-04T14:41:42.147Z,21.28
2023-03-04T14:44:48.824Z,21.30
2023-03-04T14:47:43.831Z,20.42
2023-03-04T14:50:26.941Z,20.97
2023-03-04T14:53:10.044Z,20.09
2023-03-04T14:55:37.636Z,19.91
2023-03-04T14:58:27.062Z,19.03
2023-03-04T15:01:21.602Z,18.98
2023-03-04T15:04:09.938Z,19.42
2023-03-04T15:06:56.192Z,19.38
2023-03-04T15:09:28.194Z,19.37
2023-03-04T15:12:35.174Z,18.95
2023-03-04T15:15:33.620Z,18.79
2023-03-04T15:18:33.439Z,18.91
2023-03-04T15:21:26.670Z,18.67
2023-03-04T15:24:22.099Z,18.73
2023-03-04T15:26:56.412Z,18.42
2023-03-04T15:29:32.550Z,18.24
2023-03-04T15:32:17.564Z,18.33
2023-03-04T15:35:19.758Z,18.49
2023-03-04T15:38:03.666Z,18.39
2023-03-04T15:40:40.067Z,18.75
2023-03-04T15:43:20.882Z,18.41
2023-03-04T15:46:07.662Z,18.21
2023-03-04T15:48:40.580Z,18.50
2023-03-04T15:51:22.761Z,18.42
2023-03-04T15:54:28.995Z,17.80
2023-03-04T15:57:27.034Z,18.37
2023-03-04T16:00:06.666Z,18.18
2023-03-04T16:02:52.058Z,17.83
2023-03-04T16:05:36.171Z,18.18
2023-03-04T16:08:21.566Z,17.81
2023-03-04T16:10:58.588Z,17.78
2023-03-04T16:13:36.283Z,17.46
2023-03-04T16:16:21.563Z,17.67
2023-03-04T16:18:59.475Z,18.07
2023-03-04T16:21:42.575Z,18.16
2023-03-04T16:24:31.424Z,18.05
2023-03-04T16:27:26.963Z,17.75
2023-03-04T16:30:06.577Z,18.10
2023-03-04T16:32:48.547Z,17.77
2023-03-04T16:35:28.153Z,17.47
2023-03-04T16:38:27.622Z,17.15
2023-03-04T16:40:58.753Z,17.39
2023-03-04T16:43:38.982Z,17.59
2023-03-04T16:49:19.422Z,17.24
2023-03-04T16:51:57.628Z,17.39
2023-03-04T16:54:36.817Z,17.11
2023-03-04T16:57:16.318Z,17.26
2023-03-04T16:59:58.064Z,16.81
2023-03-04T17:02:34.102Z,17.33
2023-03-04T17:05:21.201Z,17.33
2023-03-04T17:08:03.668Z,17.29
2023-03-04T17:10:57.233Z,17.33
2023-03-04T17:13:27.712Z,17.23
2023-03-04T17:16:15.687Z,17.31
2023-03-04T17:18:58.921Z,16.87
2023-03-04T17:21:39.925Z,16.71
2023-03-04T17:24:24.729Z,16.74
2023-03-04T17:27:09.287Z,16.94
2023-03-04T17:29:38.322Z,16.87
2023-03-04T17:32:08.630Z,16.81
2023-03-04T17:35:03.731Z,16.76
2023-03-04T17:37:35.923Z,16.62
2023-03-04T17:40:31.706Z,16.88
2023-03-04T17:43:01.704Z,16.75
2023-03-04T17:45:49.665Z,16.78
2023-03-04T17:48:24.569Z,16.93
2023-03-04T17:51:04.554Z,16.20
2023-03-04T17:53:48.058Z,16.76
2023-03-04T17:56:24.145Z,16.38
2023-03-04T17:58:59.548Z,15.60
2023-03-04T18:01:39.155Z,15.80
2023-03-04T18:04:24.262Z,15.64
2023-03-04T18:07:27.623Z,15.86
2023-03-04T18:10:16.014Z,16.08
2023-03-04T18:12:56.766Z,15.78
2023-03-04T18:15:24.842Z,15.64
2023-03-04T18:18:00.370Z,15.86
2023-03-04T18:20:54.478Z,16.06
2023-03-04T18:23:30.882Z,15.87
2023-03-04T18:26:02.561Z,15.80
2023-03-04T18:28:42.416Z,16.01
2023-03-04T18:31:20.844Z,16.38
2023-03-04T18:33:52.701Z,16.00
2023-03-04T18:36:45.168Z,15.68
2023-03-04T18:39:25.689Z,16.02
2023-03-04T18:42:08.827Z,15.96
2023-03-04T18:44:57.199Z,15.82
2023-03-04T18:47:47.015Z,15.80
2023-03-04T18:50:17.228Z,15.65
2023-03-04T18:55:50.626Z,15.61
2023-03-04T18:58:30.162Z,15.51
2023-03-04T19:01:13.551Z,15.14
2023-03-04T19:03:52.991Z,15.39
2023-03-04T19:06:30.669Z,15.55
2023-03-04T19:09:05.787Z,15.86
2023-03-04T19:11:37.261Z,15.99
2023-03-04T19:14:12.764Z,15.88
2023-03-04T19:16:43.523Z,15.90
2023-03-04T19:19:18.592Z,15.98
2023-03-04T19:21:50.827Z,16.09
2023-03-04T19:24:20.547Z,16.27
2023-03-04T19:26:51.442Z,16.32
2023-03-04T19:29:22.177Z,16.40
2023-03-04T19:31:49.625Z,16.34
2023-03-04T19:34:19.533Z,16.44
2023-03-04T19:36:47.215Z,16.50
2023-03-04T19:39:21.960Z,16.52
2023-03-04T19:41:54.446Z,16.55
2023-03-04T19:44:25.372Z,16.52
2023-03-04T19:46:54.648Z,16.60
2023-03-04T19:49:40.703Z,16.62
2023-03-04T19:52:41.684Z,16.64
2023-03-04T19:55:26.961Z,16.65
2023-03-04T19:58:33.635Z,16.62
2023-03-04T20:01:28.582Z,16.59
2023-03-04T20:04:17.810Z,16.59
2023-03-04T20:06:52.021Z,16.52
2023-03-04T20:09:54.236Z,16.48
2023-03-04T20:12:42.134Z,16.59
2023-03-04T20:15:23.216Z,16.60
2023-03-04T20:18:12.597Z,16.56
2023-03-04T20:20:52.132Z,16.45
2023-03-04T20:23:41.946Z,16.50
2023-03-04T20:26:50.505Z,16.51
2023-03-04T20:29:38.746Z,16.47
2023-03-04T20:32:30.304Z,16.47
2023-03-04T20:35:22.343Z,16.49
2023-03-04T20:38:09.812Z,16.40
2023-03-04T20:40:43.543Z,16.40
2023-03-04T20:43:24.307Z,16.37
2023-03-04T20:46:41.800Z,16.38
2023-03-04T20:49:34.499Z,16.19
2023-03-04T20:52:29.914Z,16.22
2023-03-04T20:55:14.712Z,16.22
2023-03-04T20:57:58.170Z,16.19
2023-03-04T21:00:44.267Z,16.15
2023-03-04T21:03:52.230Z,16.16
2023-03-04T21:06:45.433Z,16.09
2023-03-04T21:09:37.784Z,16.07
2023-03-04T21:12:30.452Z,16.07
2023-03-04T21:15:28.812Z,16.02
2023-03-04T21:18:17.226Z,16.02
2023-03-04T21:21:00.906Z,15.96
2023-03-04T21:23:39.771Z,15.98
2023-03-04T21:26:07.700Z,15.96
2023-03-04T21:29:05.556Z,15.94
2023-03-04T21:32:37.196Z,16.01
2023-03-04T21:35:19.811Z,15.95
2023-03-04T21:38:18.410Z,15.94
2023-03-04T21:40:58.496Z,15.91
2023-03-04T21:43:29.885Z,15.90
2023-03-04T21:46:18.260Z,15.91
2023-03-04T21:49:06.219Z,15.79
2023-03-04T21:51:36.710Z,15.78
2023-03-04T21:54:34.864Z,15.76
2023-03-04T21:57:07.836Z,15.79
2023-03-04T22:00:06.548Z,15.74
2023-03-04T22:02:57.015Z,15.65
2023-03-04T22:05:37.707Z,15.67
2023-03-04T22:08:28.925Z,15.64
2023-03-04T22:11:33.854Z,15.64
2023-03-04T22:14:20.358Z,15.68
2023-03-04T22:17:06.730Z,15.63
2023-03-04T22:19:55.012Z,15.64
2023-03-04T22:22:37.207Z,15.59
2023-03-04T22:25:17.943Z,15.55
2023-03-04T22:28:07.225Z,15.48
2023-03-04T22:30:50.791Z,15.44
2023-03-04T22:33:46.795Z,15.36
2023-03-04T22:36:38.733Z,15.33
2023-03-04T22:39:25.609Z,15.34
2023-03-04T22:42:13.592Z,15.30
2023-03-04T22:45:11.332Z,15.26
2023-03-04T22:48:06.120Z,15.24
2023-03-04T22:50:59.962Z,15.24
2023-03-04T22:53:52.402Z,15.20
2023-03-04T22:56:43.063Z,15.17
2023-03-04T22:59:50.665Z,15.13
2023-03-04T23:02:41.335Z,15.07
2023-03-04T23:05:43.216Z,15.04
2023-03-04T23:08:41.419Z,15.07
2023-03-04T23:11:38.864Z,14.96
2023-03-04T23:14:19.563Z,14.91
2023-03-04T23:17:08.139Z,14.90
2023-03-04T23:23:18.854Z,14.81
2023-03-04T23:26:05.726Z,14.78
2023-03-04T23:28:55.201Z,14.78
2023-03-04T23:31:51.755Z,14.72
2023-03-04T23:35:05.235Z,14.71
2023-03-04T23:37:50.744Z,14.61
2023-03-04T23:41:01.618Z,14.62
2023-03-04T23:43:56.203Z,14.56
2023-03-04T23:50:05.181Z,14.50
2023-03-04T23:53:02.167Z,14.47
2023-03-04T23:56:45.153Z,14.43
